Aviation Digital Data Service (ADDS)

Output produced by METARs form (0426 UTC 01 March 2015)
found at http://aviationweather.gov/adds/metars/
 
KPGV 282321Z 0100/0124 06004KT P6SM BKN250 
     FM010400 04006KT P6SM SCT015 BKN040 
     FM010800 03004KT 3SM BR BKN015 OVC025 
     FM011400 05007KT P6SM BKN025 OVC040 
     FM011800 02005KT 3SM -RA BR OVC010 AMD LTD TO CLD VIS AND WIND